sensor_id;sensor_type;location;lat;lon;timestamp;pressure;altitude;pressure_sealevel;temperature;humidity
20009;BME280;10165;42.662;23.260;2023-05-31T00:00:30;94195.50;;;18.92;67.58
20009;BME280;10165;42.662;23.260;2023-05-31T00:02:56;94193.06;;;19.12;66.60
20009;BME280;10165;42.662;23.260;2023-05-31T00:05:23;94195.13;;;18.86;67.84
20009;BME280;10165;42.662;23.260;2023-05-31T00:07:50;94197.06;;;18.93;67.64
20009;BME280;10165;42.662;23.260;2023-05-31T00:10:17;94192.47;;;18.79;68.38
20009;BME280;10165;42.662;23.260;2023-05-31T00:12:43;94189.41;;;18.74;68.45
20009;BME280;10165;42.662;23.260;2023-05-31T00:15:10;94190.25;;;18.56;69.26
20009;BME280;10165;42.662;23.260;2023-05-31T00:17:37;94192.94;;;18.56;69.56
20009;BME280;10165;42.662;23.260;2023-05-31T00:20:06;94201.44;;;18.66;69.73
20009;BME280;10165;42.662;23.260;2023-05-31T00:22:33;94190.91;;;18.78;68.90
20009;BME280;10165;42.662;23.260;2023-05-31T00:25:00;94195.69;;;18.39;70.39
20009;BME280;10165;42.662;23.260;2023-05-31T00:27:27;94195.38;;;18.12;71.81
20009;BME280;10165;42.662;23.260;2023-05-31T00:29:54;94197.66;;;18.24;71.82
20009;BME280;10165;42.662;23.260;2023-05-31T00:32:20;94188.22;;;18.82;69.65
20009;BME280;10165;42.662;23.260;2023-05-31T00:34:47;94189.28;;;18.95;68.25
20009;BME280;10165;42.662;23.260;2023-05-31T00:37:14;94189.41;;;18.74;68.85
20009;BME280;10165;42.662;23.260;2023-05-31T00:39:40;94189.44;;;18.63;69.85
20009;BME280;10165;42.662;23.260;2023-05-31T00:42:08;94193.25;;;18.80;69.47
20009;BME280;10165;42.662;23.260;2023-05-31T00:44:35;94190.03;;;18.99;68.29
20009;BME280;10165;42.662;23.260;2023-05-31T00:47:02;94199.81;;;18.79;68.89
20009;BME280;10165;42.662;23.260;2023-05-31T00:49:29;94195.50;;;18.92;69.13
20009;BME280;10165;42.662;23.260;2023-05-31T00:51:57;94200.72;;;19.27;68.20
20009;BME280;10165;42.662;23.260;2023-05-31T00:54:24;94200.75;;;19.17;67.71
20009;BME280;10165;42.662;23.260;2023-05-31T00:56:52;94204.72;;;19.08;68.44
20009;BME280;10165;42.662;23.260;2023-05-31T00:59:19;94203.63;;;18.88;69.22
20009;BME280;10165;42.662;23.260;2023-05-31T01:01:45;94199.34;;;18.94;68.80
20009;BME280;10165;42.662;23.260;2023-05-31T01:04:13;94200.06;;;19.05;68.38
20009;BME280;10165;42.662;23.260;2023-05-31T01:06:39;94204.41;;;18.92;68.60
20009;BME280;10165;42.662;23.260;2023-05-31T01:09:06;94202.44;;;19.00;69.06
20009;BME280;10165;42.662;23.260;2023-05-31T01:11:53;94203.00;;;19.32;67.16
20009;BME280;10165;42.662;23.260;2023-05-31T01:17:25;94195.22;;;19.89;65.32
20009;BME280;10165;42.662;23.260;2023-05-31T01:20:08;94206.13;;;19.82;64.94
20009;BME280;10165;42.662;23.260;2023-05-31T01:25:48;94195.91;;;19.56;66.65
20009;BME280;10165;42.662;23.260;2023-05-31T01:28:19;94191.19;;;19.64;66.22
20009;BME280;10165;42.662;23.260;2023-05-31T01:30:48;94195.88;;;19.60;66.70
20009;BME280;10165;42.662;23.260;2023-05-31T01:33:17;94195.63;;;19.36;67.61
20009;BME280;10165;42.662;23.260;2023-05-31T01:35:44;94200.66;;;19.34;67.65
20009;BME280;10165;42.662;23.260;2023-05-31T01:38:11;94194.34;;;19.59;66.91
20009;BME280;10165;42.662;23.260;2023-05-31T01:40:39;94191.50;;;19.14;68.49
20009;BME280;10165;42.662;23.260;2023-05-31T01:43:06;94195.22;;;18.69;70.76
20009;BME280;10165;42.662;23.260;2023-05-31T01:45:34;94203.66;;;18.85;70.33
20009;BME280;10165;42.662;23.260;2023-05-31T01:48:05;94201.84;;;18.46;71.71
20009;BME280;10165;42.662;23.260;2023-05-31T01:50:36;94201.78;;;18.68;71.32
20009;BME280;10165;42.662;23.260;2023-05-31T01:53:03;94193.66;;;18.68;71.12
20009;BME280;10165;42.662;23.260;2023-05-31T01:55:31;94191.91;;;19.16;69.08
20009;BME280;10165;42.662;23.260;2023-05-31T01:57:59;94199.75;;;18.93;69.89
20009;BME280;10165;42.662;23.260;2023-05-31T02:00:29;94188.88;;;19.03;70.11
20009;BME280;10165;42.662;23.260;2023-05-31T02:02:56;94195.22;;;19.38;68.41
20009;BME280;10165;42.662;23.260;2023-05-31T02:05:24;94198.78;;;19.24;68.39
20009;BME280;10165;42.662;23.260;2023-05-31T02:07:51;94201.50;;;19.21;68.86
20009;BME280;10165;42.662;23.260;2023-05-31T02:10:20;94199.28;;;19.08;69.20
20009;BME280;10165;42.662;23.260;2023-05-31T02:12:47;94204.78;;;18.91;69.97
20009;BME280;10165;42.662;23.260;2023-05-31T02:15:16;94208.63;;;18.97;70.02
20009;BME280;10165;42.662;23.260;2023-05-31T02:17:46;94213.31;;;18.86;70.04
20009;BME280;10165;42.662;23.260;2023-05-31T02:20:17;94208.47;;;18.13;73.67
20009;BME280;10165;42.662;23.260;2023-05-31T02:22:45;94211.63;;;17.62;76.34
20009;BME280;10165;42.662;23.260;2023-05-31T02:25:13;94203.53;;;17.77;76.53
20009;BME280;10165;42.662;23.260;2023-05-31T02:27:41;94204.19;;;18.55;73.10
20009;BME280;10165;42.662;23.260;2023-05-31T02:30:09;94206.81;;;18.69;72.76
20009;BME280;10165;42.662;23.260;2023-05-31T02:32:36;94209.00;;;18.95;71.63
20009;BME280;10165;42.662;23.260;2023-05-31T02:35:05;94206.97;;;19.17;70.98
20009;BME280;10165;42.662;23.260;2023-05-31T02:37:33;94211.59;;;19.24;69.64
20009;BME280;10165;42.662;23.260;2023-05-31T02:40:01;94210.81;;;19.20;70.01
20009;BME280;10165;42.662;23.260;2023-05-31T02:42:40;94206.97;;;19.17;69.87
20009;BME280;10165;42.662;23.260;2023-05-31T02:45:09;94207.72;;;19.21;69.79
20009;BME280;10165;42.662;23.260;2023-05-31T02:47:37;94204.16;;;18.48;72.50
20009;BME280;10165;42.662;23.260;2023-05-31T02:50:09;94205.31;;;18.50;72.89
20009;BME280;10165;42.662;23.260;2023-05-31T02:52:36;94199.47;;;18.73;72.66
20009;BME280;10165;42.662;23.260;2023-05-31T02:55:04;94204.19;;;18.34;73.72
20009;BME280;10165;42.662;23.260;2023-05-31T02:57:32;94210.47;;;17.92;75.76
20009;BME280;10165;42.662;23.260;2023-05-31T03:00:00;94208.91;;;17.87;76.85
20009;BME280;10165;42.662;23.260;2023-05-31T03:02:35;94210.47;;;17.85;76.69
20009;BME280;10165;42.662;23.260;2023-05-31T03:05:01;94208.53;;;17.78;77.29
20009;BME280;10165;42.662;23.260;2023-05-31T03:07:30;94208.91;;;18.01;77.25
20009;BME280;10165;42.662;23.260;2023-05-31T03:09:57;94207.31;;;18.25;75.95
20009;BME280;10165;42.662;23.260;2023-05-31T03:12:24;94205.03;;;18.06;76.50
20009;BME280;10165;42.662;23.260;2023-05-31T03:14:51;94211.97;;;18.14;76.70
20009;BME280;10165;42.662;23.260;2023-05-31T03:17:17;94211.59;;;18.15;75.93
20009;BME280;10165;42.662;23.260;2023-05-31T03:19:44;94214.28;;;18.15;75.79
20009;BME280;10165;42.662;23.260;2023-05-31T03:22:11;94214.66;;;18.21;75.56
20009;BME280;10165;42.662;23.260;2023-05-31T03:24:38;94218.50;;;18.27;75.29
20009;BME280;10165;42.662;23.260;2023-05-31T03:27:05;94217.25;;;18.74;74.55
20009;BME280;10165;42.662;23.260;2023-05-31T03:29:36;94221.09;;;18.77;73.39
20009;BME280;10165;42.662;23.260;2023-05-31T03:32:03;94221.16;;;18.45;73.54
20009;BME280;10165;42.662;23.260;2023-05-31T03:34:30;94222.00;;;18.24;74.81
20009;BME280;10165;42.662;23.260;2023-05-31T03:36:56;94228.91;;;18.39;75.34
20009;BME280;10165;42.662;23.260;2023-05-31T03:39:23;94233.53;;;18.46;75.05
20009;BME280;10165;42.662;23.260;2023-05-31T03:41:50;94224.63;;;18.59;74.66
20009;BME280;10165;42.662;23.260;2023-05-31T03:44:17;94227.72;;;18.58;73.82
20009;BME280;10165;42.662;23.260;2023-05-31T03:46:44;94231.19;;;18.66;75.07
20009;BME280;10165;42.662;23.260;2023-05-31T03:49:11;94228.81;;;18.82;73.73
20009;BME280;10165;42.662;23.260;2023-05-31T03:51:37;94226.13;;;18.68;74.40
20009;BME280;10165;42.662;23.260;2023-05-31T03:54:04;94238.91;;;18.63;74.85
20009;BME280;10165;42.662;23.260;2023-05-31T03:56:31;94236.13;;;18.88;74.35
20009;BME280;10165;42.662;23.260;2023-05-31T03:58:58;94236.13;;;18.85;74.41
20009;BME280;10165;42.662;23.260;2023-05-31T04:01:25;94230.75;;;18.78;74.35
20009;BME280;10165;42.662;23.260;2023-05-31T04:03:52;94238.88;;;18.78;75.19
20009;BME280;10165;42.662;23.260;2023-05-31T04:06:19;94242.34;;;18.82;75.28
20009;BME280;10165;42.662;23.260;2023-05-31T04:08:47;94242.59;;;19.05;75.00
20009;BME280;10165;42.662;23.260;2023-05-31T04:11:14;94243.59;;;19.36;72.90
20009;BME280;10165;42.662;23.260;2023-05-31T04:13:41;94243.75;;;19.11;72.17
20009;BME280;10165;42.662;23.260;2023-05-31T04:16:07;94248.91;;;18.84;72.96
20009;BME280;10165;42.662;23.260;2023-05-31T04:18:34;94238.09;;;18.77;74.19
20009;BME280;10165;42.662;23.260;2023-05-31T04:21:01;94246.69;;;18.47;75.53
20009;BME280;10165;42.662;23.260;2023-05-31T04:23:29;94241.28;;;18.33;74.87
20009;BME280;10165;42.662;23.260;2023-05-31T04:25:56;94251.31;;;18.40;74.75
20009;BME280;10165;42.662;23.260;2023-05-31T04:28:24;94240.81;;;18.67;74.24
20009;BME280;10165;42.662;23.260;2023-05-31T04:30:50;94245.00;;;18.92;73.86
20009;BME280;10165;42.662;23.260;2023-05-31T04:33:18;94251.50;;;19.13;72.75
20009;BME280;10165;42.662;23.260;2023-05-31T04:35:45;94261.22;;;18.96;73.04
20009;BME280;10165;42.662;23.260;2023-05-31T04:38:12;94258.97;;;18.80;72.74
20009;BME280;10165;42.662;23.260;2023-05-31T04:40:40;94267.75;;;19.05;72.25
20009;BME280;10165;42.662;23.260;2023-05-31T04:43:08;94265.69;;;19.34;71.37
20009;BME280;10165;42.662;23.260;2023-05-31T04:45:35;94262.56;;;19.39;70.73
20009;BME280;10165;42.662;23.260;2023-05-31T04:48:02;94277.22;;;19.52;70.25
20009;BME280;10165;42.662;23.260;2023-05-31T04:50:29;94271.44;;;19.50;70.42
20009;BME280;10165;42.662;23.260;2023-05-31T04:52:56;94271.75;;;19.60;69.43
20009;BME280;10165;42.662;23.260;2023-05-31T04:55:23;94274.94;;;19.44;70.16
20009;BME280;10165;42.662;23.260;2023-05-31T04:57:50;94274.56;;;19.38;70.33
20009;BME280;10165;42.662;23.260;2023-05-31T05:00:17;94270.69;;;19.46;70.18
20009;BME280;10165;42.662;23.260;2023-05-31T05:02:45;94272.16;;;19.51;70.09
20009;BME280;10165;42.662;23.260;2023-05-31T05:05:12;94270.78;;;19.87;68.63
20009;BME280;10165;42.662;23.260;2023-05-31T05:07:39;94278.50;;;19.92;68.49
20009;BME280;10165;42.662;23.260;2023-05-31T05:10:08;94281.53;;;19.98;67.66
20009;BME280;10165;42.662;23.260;2023-05-31T05:12:35;94286.84;;;20.16;67.04
20009;BME280;10165;42.662;23.260;2023-05-31T05:15:02;94286.28;;;19.83;67.31
20009;BME280;10165;42.662;23.260;2023-05-31T05:17:29;94286.94;;;20.01;68.15
20009;BME280;10165;42.662;23.260;2023-05-31T05:19:55;94289.94;;;20.14;67.24
20009;BME280;10165;42.662;23.260;2023-05-31T05:22:22;94300.69;;;20.25;66.70
20009;BME280;10165;42.662;23.260;2023-05-31T05:24:49;94302.09;;;20.43;65.69
20009;BME280;10165;42.662;23.260;2023-05-31T05:27:16;94302.06;;;20.50;65.67
20009;BME280;10165;42.662;23.260;2023-05-31T05:29:42;94311.31;;;20.53;64.75
20009;BME280;10165;42.662;23.260;2023-05-31T05:32:09;94302.47;;;20.45;65.50
20009;BME280;10165;42.662;23.260;2023-05-31T05:34:36;94300.63;;;20.35;65.12
20009;BME280;10165;42.662;23.260;2023-05-31T05:37:03;94307.91;;;20.45;64.14
20009;BME280;10165;42.662;23.260;2023-05-31T05:39:29;94307.09;;;19.97;65.69
20009;BME280;10165;42.662;23.260;2023-05-31T05:41:56;94309.56;;;20.32;66.33
20009;BME280;10165;42.662;23.260;2023-05-31T05:44:23;94305.78;;;20.19;65.22
20009;BME280;10165;42.662;23.260;2023-05-31T05:46:50;94310.69;;;19.83;67.20
20009;BME280;10165;42.662;23.260;2023-05-31T05:49:17;94306.16;;;20.21;66.53
20009;BME280;10165;42.662;23.260;2023-05-31T05:51:45;94312.22;;;19.88;67.15
20009;BME280;10165;42.662;23.260;2023-05-31T05:54:11;94314.28;;;20.21;66.72
20009;BME280;10165;42.662;23.260;2023-05-31T05:56:38;94310.03;;;19.65;67.56
20009;BME280;10165;42.662;23.260;2023-05-31T05:59:05;94314.97;;;19.84;66.72
20009;BME280;10165;42.662;23.260;2023-05-31T06:01:31;94309.63;;;20.22;66.70
20009;BME280;10165;42.662;23.260;2023-05-31T06:04:01;94311.72;;;20.51;64.83
20009;BME280;10165;42.662;23.260;2023-05-31T06:06:28;94315.75;;;20.33;65.21
20009;BME280;10165;42.662;23.260;2023-05-31T06:08:55;94310.06;;;20.65;64.29
20009;BME280;10165;42.662;23.260;2023-05-31T06:11:21;94302.72;;;20.14;64.74
20009;BME280;10165;42.662;23.260;2023-05-31T06:13:49;94309.72;;;20.59;63.76
20009;BME280;10165;42.662;23.260;2023-05-31T06:16:16;94315.38;;;20.34;63.96
20009;BME280;10165;42.662;23.260;2023-05-31T06:18:42;94309.19;;;20.34;64.82
20009;BME280;10165;42.662;23.260;2023-05-31T06:21:09;94312.72;;;20.68;63.56
20009;BME280;10165;42.662;23.260;2023-05-31T06:23:36;94311.59;;;20.18;65.21
20009;BME280;10165;42.662;23.260;2023-05-31T06:26:03;94320.31;;;20.46;64.53
20009;BME280;10165;42.662;23.260;2023-05-31T06:28:30;94317.00;;;20.21;65.14
20009;BME280;10165;42.662;23.260;2023-05-31T06:31:02;94313.34;;;20.45;64.69
20009;BME280;10165;42.662;23.260;2023-05-31T06:33:29;94311.25;;;20.60;63.23
20009;BME280;10165;42.662;23.260;2023-05-31T06:35:56;94320.69;;;20.86;63.18
20009;BME280;10165;42.662;23.260;2023-05-31T06:38:23;94323.00;;;20.50;63.89
20009;BME280;10165;42.662;23.260;2023-05-31T06:40:51;94319.22;;;20.37;64.43
20009;BME280;10165;42.662;23.260;2023-05-31T06:43:18;94313.09;;;20.70;63.56
20009;BME280;10165;42.662;23.260;2023-05-31T06:45:48;94317.47;;;20.61;63.08
20009;BME280;10165;42.662;23.260;2023-05-31T06:48:14;94317.16;;;20.51;63.56
20009;BME280;10165;42.662;23.260;2023-05-31T06:50:41;94318.38;;;20.43;64.72
20009;BME280;10165;42.662;23.260;2023-05-31T06:53:08;94318.56;;;21.00;63.60
20009;BME280;10165;42.662;23.260;2023-05-31T06:55:39;94311.75;;;20.85;63.40
20009;BME280;10165;42.662;23.260;2023-05-31T06:58:06;94320.63;;;20.89;64.10
20009;BME280;10165;42.662;23.260;2023-05-31T07:00:33;94316.97;;;21.40;61.18
20009;BME280;10165;42.662;23.260;2023-05-31T07:03:00;94319.94;;;20.82;62.60
20009;BME280;10165;42.662;23.260;2023-05-31T07:05:28;94319.44;;;20.94;62.95
20009;BME280;10165;42.662;23.260;2023-05-31T07:07:56;94317.47;;;21.32;61.59
20009;BME280;10165;42.662;23.260;2023-05-31T07:10:22;94324.72;;;21.72;61.16
20009;BME280;10165;42.662;23.260;2023-05-31T07:12:49;94317.47;;;22.16;60.07
20009;BME280;10165;42.662;23.260;2023-05-31T07:15:17;94318.97;;;21.67;60.13
20009;BME280;10165;42.662;23.260;2023-05-31T07:17:44;94324.22;;;21.20;60.58
20009;BME280;10165;42.662;23.260;2023-05-31T07:20:12;94314.66;;;21.69;59.82
20009;BME280;10165;42.662;23.260;2023-05-31T07:22:39;94320.13;;;21.66;59.92
20009;BME280;10165;42.662;23.260;2023-05-31T07:25:06;94318.03;;;22.07;59.05
20009;BME280;10165;42.662;23.260;2023-05-31T07:27:33;94318.34;;;22.36;57.37
20009;BME280;10165;42.662;23.260;2023-05-31T07:30:00;94319.03;;;22.63;56.97
20009;BME280;10165;42.662;23.260;2023-05-31T07:32:27;94316.84;;;22.31;58.04
20009;BME280;10165;42.662;23.260;2023-05-31T07:34:54;94318.75;;;22.11;58.73
20009;BME280;10165;42.662;23.260;2023-05-31T07:37:29;94318.50;;;22.25;59.42
20009;BME280;10165;42.662;23.260;2023-05-31T07:39:56;94314.03;;;22.12;57.66
20009;BME280;10165;42.662;23.260;2023-05-31T07:42:23;94315.00;;;22.02;58.87
20009;BME280;10165;42.662;23.260;2023-05-31T07:44:50;94310.41;;;22.45;57.77
20009;BME280;10165;42.662;23.260;2023-05-31T07:47:17;94315.53;;;22.16;58.02
20009;BME280;10165;42.662;23.260;2023-05-31T07:49:44;94318.28;;;22.86;56.44
20009;BME280;10165;42.662;23.260;2023-05-31T07:52:11;94310.91;;;23.06;55.85
20009;BME280;10165;42.662;23.260;2023-05-31T07:54:38;94309.66;;;23.11;54.76
20009;BME280;10165;42.662;23.260;2023-05-31T07:57:05;94319.22;;;21.76;58.14
20009;BME280;10165;42.662;23.260;2023-05-31T07:59:32;94320.31;;;22.09;59.13
20009;BME280;10165;42.662;23.260;2023-05-31T08:01:58;94317.84;;;22.68;57.41
20009;BME280;10165;42.662;23.260;2023-05-31T08:04:25;94316.31;;;21.90;57.92
20009;BME280;10165;42.662;23.260;2023-05-31T08:06:52;94318.09;;;22.04;57.92
20009;BME280;10165;42.662;23.260;2023-05-31T08:09:19;94307.03;;;22.37;56.99
20009;BME280;10165;42.662;23.260;2023-05-31T08:11:46;94321.81;;;22.13;57.34
20009;BME280;10165;42.662;23.260;2023-05-31T08:14:12;94312.19;;;21.78;58.69
20009;BME280;10165;42.662;23.260;2023-05-31T08:16:39;94307.84;;;22.58;57.28
20009;BME280;10165;42.662;23.260;2023-05-31T08:19:06;94314.38;;;22.64;57.43
20009;BME280;10165;42.662;23.260;2023-05-31T08:21:33;94306.63;;;23.05;56.76
20009;BME280;10165;42.662;23.260;2023-05-31T08:24:04;94310.53;;;23.04;54.61
20009;BME280;10165;42.662;23.260;2023-05-31T08:26:35;94313.59;;;22.86;55.39
20009;BME280;10165;42.662;23.260;2023-05-31T08:29:02;94306.06;;;22.94;55.84
20009;BME280;10165;42.662;23.260;2023-05-31T08:31:28;94302.72;;;23.26;54.72
20009;BME280;10165;42.662;23.260;2023-05-31T08:33:58;94300.75;;;23.46;53.98
20009;BME280;10165;42.662;23.260;2023-05-31T08:36:26;94296.34;;;23.88;53.59
20009;BME280;10165;42.662;23.260;2023-05-31T08:38:53;94303.38;;;23.53;52.08
20009;BME280;10165;42.662;23.260;2023-05-31T08:41:22;94286.44;;;23.22;53.60
20009;BME280;10165;42.662;23.260;2023-05-31T08:43:49;94294.59;;;23.42;53.31
20009;BME280;10165;42.662;23.260;2023-05-31T08:46:16;94282.72;;;23.32;53.83
20009;BME280;10165;42.662;23.260;2023-05-31T08:48:54;94285.09;;;23.50;54.40
20009;BME280;10165;42.662;23.260;2023-05-31T08:51:24;94282.25;;;23.73;52.79
20009;BME280;10165;42.662;23.260;2023-05-31T08:53:51;94287.00;;;23.53;52.86
20009;BME280;10165;42.662;23.260;2023-05-31T08:56:18;94278.41;;;23.71;52.63
20009;BME280;10165;42.662;23.260;2023-05-31T08:58:50;94274.75;;;23.77;52.16
20009;BME280;10165;42.662;23.260;2023-05-31T09:01:20;94280.41;;;23.11;53.96
20009;BME280;10165;42.662;23.260;2023-05-31T09:03:47;94274.53;;;23.32;53.50
20009;BME280;10165;42.662;23.260;2023-05-31T09:06:14;94265.78;;;23.41;53.82
20009;BME280;10165;42.662;23.260;2023-05-31T09:08:41;94265.09;;;23.73;53.09
20009;BME280;10165;42.662;23.260;2023-05-31T09:11:09;94255.25;;;23.79;52.65
20009;BME280;10165;42.662;23.260;2023-05-31T09:13:36;94262.09;;;23.31;52.29
20009;BME280;10165;42.662;23.260;2023-05-31T09:16:03;94256.00;;;23.63;51.96
20009;BME280;10165;42.662;23.260;2023-05-31T09:18:36;94258.50;;;23.90;51.38
20009;BME280;10165;42.662;23.260;2023-05-31T09:21:11;94252.75;;;23.85;52.71
20009;BME280;10165;42.662;23.260;2023-05-31T09:23:51;94255.56;;;23.81;50.31
20009;BME280;10165;42.662;23.260;2023-05-31T09:26:18;94243.00;;;24.19;49.51
20009;BME280;10165;42.662;23.260;2023-05-31T09:28:49;94244.13;;;24.22;49.98
20009;BME280;10165;42.662;23.260;2023-05-31T09:31:16;94246.38;;;23.75;53.97
20009;BME280;10165;42.662;23.260;2023-05-31T09:33:47;94256.78;;;23.24;52.27
20009;BME280;10165;42.662;23.260;2023-05-31T09:36:27;94247.44;;;23.61;51.30
20009;BME280;10165;42.662;23.260;2023-05-31T09:38:59;94247.69;;;23.51;52.11
20009;BME280;10165;42.662;23.260;2023-05-31T09:41:35;94249.81;;;23.95;52.25
20009;BME280;10165;42.662;23.260;2023-05-31T09:44:02;94236.16;;;23.43;53.37
20009;BME280;10165;42.662;23.260;2023-05-31T09:46:29;94233.75;;;23.97;50.73
20009;BME280;10165;42.662;23.260;2023-05-31T09:49:00;94225.88;;;23.51;51.13
20009;BME280;10165;42.662;23.260;2023-05-31T09:51:28;94223.25;;;23.96;50.13
20009;BME280;10165;42.662;23.260;2023-05-31T09:53:54;94230.88;;;23.16;53.57
20009;BME280;10165;42.662;23.260;2023-05-31T09:56:24;94230.00;;;23.39;51.94
20009;BME280;10165;42.662;23.260;2023-05-31T09:58:55;94221.81;;;23.59;51.35
20009;BME280;10165;42.662;23.260;2023-05-31T10:01:22;94229.94;;;23.23;52.54
20009;BME280;10165;42.662;23.260;2023-05-31T10:03:49;94238.28;;;22.33;54.50
20009;BME280;10165;42.662;23.260;2023-05-31T10:06:18;94230.72;;;23.23;52.41
20009;BME280;10165;42.662;23.260;2023-05-31T10:08:45;94232.47;;;23.53;53.73
20009;BME280;10165;42.662;23.260;2023-05-31T10:11:17;94232.97;;;23.80;50.75
20009;BME280;10165;42.662;23.260;2023-05-31T10:13:49;94245.75;;;22.92;51.31
20009;BME280;10165;42.662;23.260;2023-05-31T10:16:19;94244.28;;;23.27;50.98
20009;BME280;10165;42.662;23.260;2023-05-31T10:18:50;94233.81;;;23.61;50.58
20009;BME280;10165;42.662;23.260;2023-05-31T10:21:22;94241.34;;;23.90;51.07
20009;BME280;10165;42.662;23.260;2023-05-31T10:23:57;94240.91;;;23.39;52.02
20009;BME280;10165;42.662;23.260;2023-05-31T10:26:34;94239.00;;;23.56;52.72
20009;BME280;10165;42.662;23.260;2023-05-31T10:29:10;94239.22;;;23.65;50.91
20009;BME280;10165;42.662;23.260;2023-05-31T10:31:47;94231.63;;;23.89;50.82
20009;BME280;10165;42.662;23.260;2023-05-31T10:34:25;94220.28;;;24.22;50.09
20009;BME280;10165;42.662;23.260;2023-05-31T10:36:54;94223.09;;;24.35;50.25
20009;BME280;10165;42.662;23.260;2023-05-31T10:39:43;94225.00;;;24.22;49.45
20009;BME280;10165;42.662;23.260;2023-05-31T10:47:45;94210.66;;;24.63;49.51
20009;BME280;10165;42.662;23.260;2023-05-31T10:50:20;94215.19;;;24.24;49.51
20009;BME280;10165;42.662;23.260;2023-05-31T10:52:48;94214.84;;;24.22;49.95
20009;BME280;10165;42.662;23.260;2023-05-31T10:55:17;94210.97;;;24.52;51.02
20009;BME280;10165;42.662;23.260;2023-05-31T10:57:49;94211.75;;;24.04;49.55
20009;BME280;10165;42.662;23.260;2023-05-31T11:00:23;94218.91;;;24.47;49.59
20009;BME280;10165;42.662;23.260;2023-05-31T11:02:52;94208.00;;;23.98;49.19
20009;BME280;10165;42.662;23.260;2023-05-31T11:05:22;94216.13;;;24.63;47.02
20009;BME280;10165;42.662;23.260;2023-05-31T11:07:52;94211.44;;;24.18;48.19
20009;BME280;10165;42.662;23.260;2023-05-31T11:10:26;94200.22;;;24.45;47.56
20009;BME280;10165;42.662;23.260;2023-05-31T11:12:56;94201.94;;;24.23;48.22
20009;BME280;10165;42.662;23.260;2023-05-31T11:15:38;94198.28;;;24.58;47.29
20009;BME280;10165;42.662;23.260;2023-05-31T11:18:22;94207.06;;;24.66;45.55
20009;BME280;10165;42.662;23.260;2023-05-31T11:20:49;94198.78;;;24.69;47.26
20009;BME280;10165;42.662;23.260;2023-05-31T11:25:43;94195.72;;;24.96;45.90
20009;BME280;10165;42.662;23.260;2023-05-31T11:28:10;94190.13;;;24.87;45.44
20009;BME280;10165;42.662;23.260;2023-05-31T11:30:37;94185.91;;;25.11;43.63
20009;BME280;10165;42.662;23.260;2023-05-31T11:33:22;94175.16;;;24.63;47.10
20009;BME280;10165;42.662;23.260;2023-05-31T11:35:49;94179.69;;;24.82;43.62
20009;BME280;10165;42.662;23.260;2023-05-31T11:38:16;94179.88;;;24.17;46.52
20009;BME280;10165;42.662;23.260;2023-05-31T11:40:43;94167.78;;;24.76;47.36
20009;BME280;10165;42.662;23.260;2023-05-31T11:43:11;94175.19;;;25.04;46.79
20009;BME280;10165;42.662;23.260;2023-05-31T11:45:45;94171.16;;;24.80;46.00
20009;BME280;10165;42.662;23.260;2023-05-31T11:48:24;94175.84;;;25.08;48.69
20009;BME280;10165;42.662;23.260;2023-05-31T11:50:54;94158.59;;;24.83;48.40
20009;BME280;10165;42.662;23.260;2023-05-31T11:53:22;94156.56;;;24.58;52.87
20009;BME280;10165;42.662;23.260;2023-05-31T11:55:48;94163.31;;;24.53;54.66
20009;BME280;10165;42.662;23.260;2023-05-31T11:58:19;94164.94;;;24.51;47.79
20009;BME280;10165;42.662;23.260;2023-05-31T12:00:47;94161.47;;;24.92;46.46
20009;BME280;10165;42.662;23.260;2023-05-31T12:03:15;94166.91;;;24.79;45.83
20009;BME280;10165;42.662;23.260;2023-05-31T12:05:50;94162.22;;;24.22;48.96
20009;BME280;10165;42.662;23.260;2023-05-31T12:08:18;94169.91;;;24.56;47.38
20009;BME280;10165;42.662;23.260;2023-05-31T12:10:44;94171.53;;;23.76;49.10
20009;BME280;10165;42.662;23.260;2023-05-31T12:13:15;94179.75;;;24.37;48.12
20009;BME280;10165;42.662;23.260;2023-05-31T12:15:42;94176.19;;;24.24;49.73
20009;BME280;10165;42.662;23.260;2023-05-31T12:18:16;94187.13;;;23.75;49.57
20009;BME280;10165;42.662;23.260;2023-05-31T12:20:43;94193.38;;;23.40;50.13
20009;BME280;10165;42.662;23.260;2023-05-31T12:23:15;94179.88;;;23.69;49.29
20009;BME280;10165;42.662;23.260;2023-05-31T12:25:48;94173.72;;;23.81;49.85
20009;BME280;10165;42.662;23.260;2023-05-31T12:28:17;94178.31;;;23.84;49.91
20009;BME280;10165;42.662;23.260;2023-05-31T12:30:45;94171.94;;;23.58;50.42
20009;BME280;10165;42.662;23.260;2023-05-31T12:33:14;94163.16;;;23.99;48.90
20009;BME280;10165;42.662;23.260;2023-05-31T12:35:42;94163.25;;;23.79;50.83
20009;BME280;10165;42.662;23.260;2023-05-31T12:38:09;94158.53;;;24.12;48.41
20009;BME280;10165;42.662;23.260;2023-05-31T12:40:38;94160.69;;;24.50;50.11
20009;BME280;10165;42.662;23.260;2023-05-31T12:43:05;94161.25;;;24.57;47.83
20009;BME280;10165;42.662;23.260;2023-05-31T12:45:38;94160.41;;;24.73;46.37
20009;BME280;10165;42.662;23.260;2023-05-31T12:48:07;94160.75;;;24.91;46.08
20009;BME280;10165;42.662;23.260;2023-05-31T12:50:35;94166.59;;;24.48;47.46
20009;BME280;10165;42.662;23.260;2023-05-31T12:53:05;94166.56;;;23.55;49.94
20009;BME280;10165;42.662;23.260;2023-05-31T12:55:32;94172.16;;;22.56;55.39
20009;BME280;10165;42.662;23.260;2023-05-31T12:57:59;94179.50;;;22.79;61.10
20009;BME280;10165;42.662;23.260;2023-05-31T13:00:32;94187.38;;;22.54;62.18
20009;BME280;10165;42.662;23.260;2023-05-31T13:02:59;94199.22;;;22.63;61.55
20009;BME280;10165;42.662;23.260;2023-05-31T13:05:26;94190.34;;;22.39;65.19
20009;BME280;10165;42.662;23.260;2023-05-31T13:07:53;94198.50;;;22.39;66.59
20009;BME280;10165;42.662;23.260;2023-05-31T13:10:20;94203.75;;;21.57;66.75